sensor_id;sensor_type;location;lat;lon;timestamp;pressure;altitude;pressure_sealevel;temperature
19568;BMP280;9930;49.240;8.548;2022-11-20T00:01:29;100081.22;;;9.76
19568;BMP280;9930;49.240;8.548;2022-11-20T00:03:56;100064.09;;;9.72
19568;BMP280;9930;49.240;8.548;2022-11-20T00:06:24;100077.94;;;9.79
19568;BMP280;9930;49.240;8.548;2022-11-20T00:08:58;100065.94;;;9.76
19568;BMP280;9930;49.240;8.548;2022-11-20T00:11:28;100064.47;;;9.83
19568;BMP280;9930;49.240;8.548;2022-11-20T00:13:57;100068.75;;;9.84
19568;BMP280;9930;49.240;8.548;2022-11-20T00:16:26;100065.34;;;9.83
19568;BMP280;9930;49.240;8.548;2022-11-20T00:18:53;100066.22;;;9.84
19568;BMP280;9930;49.240;8.548;2022-11-20T00:21:26;100067.19;;;9.87
19568;BMP280;9930;49.240;8.548;2022-11-20T00:23:57;100070.56;;;9.86
19568;BMP280;9930;49.240;8.548;2022-11-20T00:26:25;100072.34;;;9.89
19568;BMP280;9930;49.240;8.548;2022-11-20T00:28:56;100058.53;;;9.82
19568;BMP280;9930;49.240;8.548;2022-11-20T00:31:24;100070.66;;;9.89
19568;BMP280;9930;49.240;8.548;2022-11-20T00:33:57;100059.56;;;9.87
19568;BMP280;9930;49.240;8.548;2022-11-20T00:36:26;100057.81;;;9.86
19568;BMP280;9930;49.240;8.548;2022-11-20T00:38:57;100066.38;;;9.88
19568;BMP280;9930;49.240;8.548;2022-11-20T00:41:25;100073.31;;;9.92
19568;BMP280;9930;49.240;8.548;2022-11-20T00:43:55;100064.75;;;9.90
19568;BMP280;9930;49.240;8.548;2022-11-20T00:46:30;100073.38;;;9.94
19568;BMP280;9930;49.240;8.548;2022-11-20T00:48:56;100057.88;;;9.88
19568;BMP280;9930;49.240;8.548;2022-11-20T00:51:26;100064.09;;;9.96
19568;BMP280;9930;49.240;8.548;2022-11-20T00:53:58;100051.09;;;9.88
19568;BMP280;9930;49.240;8.548;2022-11-20T00:56:27;100061.59;;;9.97
19568;BMP280;9930;49.240;8.548;2022-11-20T00:59:00;100051.19;;;9.91
19568;BMP280;9930;49.240;8.548;2022-11-20T01:01:27;100055.75;;;10.00
19568;BMP280;9930;49.240;8.548;2022-11-20T01:03:59;100059.91;;;9.98
19568;BMP280;9930;49.240;8.548;2022-11-20T01:06:33;100042.59;;;9.88
19568;BMP280;9930;49.240;8.548;2022-11-20T01:09:11;100076.19;;;10.01
19568;BMP280;9930;49.240;8.548;2022-11-20T01:11:43;100077.00;;;10.00
19568;BMP280;9930;49.240;8.548;2022-11-20T01:14:16;100049.38;;;9.87
19568;BMP280;9930;49.240;8.548;2022-11-20T01:16:47;100058.09;;;9.94
19568;BMP280;9930;49.240;8.548;2022-11-20T01:19:18;100071.94;;;10.02
19568;BMP280;9930;49.240;8.548;2022-11-20T01:21:48;100071.13;;;10.03
19568;BMP280;9930;49.240;8.548;2022-11-20T01:24:17;100066.91;;;10.03
19568;BMP280;9930;49.240;8.548;2022-11-20T01:26:46;100071.09;;;10.01
19568;BMP280;9930;49.240;8.548;2022-11-20T01:29:17;100060.72;;;9.97
19568;BMP280;9930;49.240;8.548;2022-11-20T01:31:43;100066.00;;;10.01
19568;BMP280;9930;49.240;8.548;2022-11-20T01:34:12;100057.28;;;9.95
19568;BMP280;9930;49.240;8.548;2022-11-20T01:36:40;100070.28;;;10.02
19568;BMP280;9930;49.240;8.548;2022-11-20T01:39:11;100058.41;;;10.03
19568;BMP280;9930;49.240;8.548;2022-11-20T01:41:38;100054.13;;;10.02
19568;BMP280;9930;49.240;8.548;2022-11-20T01:44:58;100064.19;;;9.99
19568;BMP280;9930;49.240;8.548;2022-11-20T01:47:34;100070.16;;;9.99
19568;BMP280;9930;49.240;8.548;2022-11-20T01:50:23;100049.56;;;9.93
19568;BMP280;9930;49.240;8.548;2022-11-20T01:53:03;100064.00;;;9.93
19568;BMP280;9930;49.240;8.548;2022-11-20T01:55:41;100047.56;;;9.85
19568;BMP280;9930;49.240;8.548;2022-11-20T01:58:08;100055.47;;;9.92
19568;BMP280;9930;49.240;8.548;2022-11-20T02:00:34;100041.72;;;9.87
19568;BMP280;9930;49.240;8.548;2022-11-20T02:03:15;100054.66;;;9.93
19568;BMP280;9930;49.240;8.548;2022-11-20T02:05:59;100051.34;;;9.96
19568;BMP280;9930;49.240;8.548;2022-11-20T02:08:29;100046.22;;;9.94
19568;BMP280;9930;49.240;8.548;2022-11-20T02:10:55;100041.97;;;9.95
19568;BMP280;9930;49.240;8.548;2022-11-20T02:13:26;100051.63;;;10.03
19568;BMP280;9930;49.240;8.548;2022-11-20T02:16:29;100049.03;;;10.02
19568;BMP280;9930;49.240;8.548;2022-11-20T02:19:00;100041.31;;;10.00
19568;BMP280;9930;49.240;8.548;2022-11-20T02:21:50;100046.53;;;10.03
19568;BMP280;9930;49.240;8.548;2022-11-20T02:24:23;100055.09;;;10.05
19568;BMP280;9930;49.240;8.548;2022-11-20T02:27:11;100054.31;;;10.08
19568;BMP280;9930;49.240;8.548;2022-11-20T02:32:33;100044.13;;;10.08
19568;BMP280;9930;49.240;8.548;2022-11-20T02:35:09;100043.31;;;10.09
19568;BMP280;9930;49.240;8.548;2022-11-20T02:37:39;100034.66;;;10.04
19568;BMP280;9930;49.240;8.548;2022-11-20T02:40:07;100036.34;;;10.03
19568;BMP280;9930;49.240;8.548;2022-11-20T02:42:33;100023.28;;;9.94
19568;BMP280;9930;49.240;8.548;2022-11-20T02:44:58;100034.50;;;9.99
19568;BMP280;9930;49.240;8.548;2022-11-20T02:47:26;100018.13;;;9.93
19568;BMP280;9930;49.240;8.548;2022-11-20T02:49:53;100025.13;;;9.98
19568;BMP280;9930;49.240;8.548;2022-11-20T02:52:27;100025.19;;;10.00
19568;BMP280;9930;49.240;8.548;2022-11-20T02:54:54;100023.50;;;10.00
19568;BMP280;9930;49.240;8.548;2022-11-20T02:57:23;100019.31;;;10.02
19568;BMP280;9930;49.240;8.548;2022-11-20T02:59:53;100011.56;;;9.99
19568;BMP280;9930;49.240;8.548;2022-11-20T03:02:27;100021.09;;;10.05
19568;BMP280;9930;49.240;8.548;2022-11-20T03:04:54;100013.25;;;9.99
19568;BMP280;9930;49.240;8.548;2022-11-20T03:07:23;100004.78;;;10.00
19568;BMP280;9930;49.240;8.548;2022-11-20T03:09:53;100010.91;;;10.05
19568;BMP280;9930;49.240;8.548;2022-11-20T03:12:23;100014.41;;;10.09
19568;BMP280;9930;49.240;8.548;2022-11-20T03:14:53;100005.75;;;10.03
19568;BMP280;9930;49.240;8.548;2022-11-20T03:17:22;100008.47;;;10.08
19568;BMP280;9930;49.240;8.548;2022-11-20T03:19:56;100008.50;;;10.10
19568;BMP280;9930;49.240;8.548;2022-11-20T03:22:23;99998.22;;;10.06
19568;BMP280;9930;49.240;8.548;2022-11-20T03:24:53;100000.06;;;10.11
19568;BMP280;9930;49.240;8.548;2022-11-20T03:27:24;100005.34;;;10.17
19568;BMP280;9930;49.240;8.548;2022-11-20T03:29:53;99979.50;;;10.06
19568;BMP280;9930;49.240;8.548;2022-11-20T03:32:29;100002.03;;;10.19
19568;BMP280;9930;49.240;8.548;2022-11-20T03:34:54;100000.38;;;10.20
19568;BMP280;9930;49.240;8.548;2022-11-20T03:37:23;100003.78;;;10.20
19568;BMP280;9930;49.240;8.548;2022-11-20T03:39:53;100002.97;;;10.21
19568;BMP280;9930;49.240;8.548;2022-11-20T03:42:23;100003.03;;;10.23
19568;BMP280;9930;49.240;8.548;2022-11-20T03:45:08;100008.94;;;10.22
19568;BMP280;9930;49.240;8.548;2022-11-20T03:47:37;99996.84;;;10.16
19568;BMP280;9930;49.240;8.548;2022-11-20T03:50:03;100005.47;;;10.20
19568;BMP280;9930;49.240;8.548;2022-11-20T03:52:29;100021.56;;;10.19
19568;BMP280;9930;49.240;8.548;2022-11-20T03:54:55;100015.59;;;10.18
19568;BMP280;9930;49.240;8.548;2022-11-20T03:57:26;100022.31;;;10.16
19568;BMP280;9930;49.240;8.548;2022-11-20T03:59:57;100019.72;;;10.15
19568;BMP280;9930;49.240;8.548;2022-11-20T04:02:23;100017.94;;;10.12
19568;BMP280;9930;49.240;8.548;2022-11-20T04:04:59;100010.09;;;10.06
19568;BMP280;9930;49.240;8.548;2022-11-20T04:07:24;100003.31;;;10.06
19568;BMP280;9930;49.240;8.548;2022-11-20T04:09:53;100011.88;;;10.09
19568;BMP280;9930;49.240;8.548;2022-11-20T04:12:26;100012.75;;;10.09
19568;BMP280;9930;49.240;8.548;2022-11-20T04:14:53;100011.88;;;10.09
19568;BMP280;9930;49.240;8.548;2022-11-20T04:17:23;100005.97;;;10.10
19568;BMP280;9930;49.240;8.548;2022-11-20T04:19:49;99997.31;;;10.04
19568;BMP280;9930;49.240;8.548;2022-11-20T04:22:18;99999.22;;;10.12
19568;BMP280;9930;49.240;8.548;2022-11-20T04:24:46;100001.00;;;10.14
19568;BMP280;9930;49.240;8.548;2022-11-20T04:27:16;99990.06;;;10.17
19568;BMP280;9930;49.240;8.548;2022-11-20T04:29:42;99992.59;;;10.17
19568;BMP280;9930;49.240;8.548;2022-11-20T04:32:08;99982.31;;;10.14
19568;BMP280;9930;49.240;8.548;2022-11-20T04:34:36;99987.56;;;10.18
19568;BMP280;9930;49.240;8.548;2022-11-20T04:37:04;99995.47;;;10.26
19568;BMP280;9930;49.240;8.548;2022-11-20T04:39:30;99992.94;;;10.26
19568;BMP280;9930;49.240;8.548;2022-11-20T04:42:00;99996.50;;;10.31
19568;BMP280;9930;49.240;8.548;2022-11-20T04:44:44;99975.97;;;10.26
19568;BMP280;9930;49.240;8.548;2022-11-20T04:47:10;99988.91;;;10.32
19568;BMP280;9930;49.240;8.548;2022-11-20T04:49:39;99996.63;;;10.35
19568;BMP280;9930;49.240;8.548;2022-11-20T04:52:04;99979.47;;;10.30
19568;BMP280;9930;49.240;8.548;2022-11-20T04:54:30;99979.53;;;10.31
19568;BMP280;9930;49.240;8.548;2022-11-20T04:56:55;99984.88;;;10.41
19568;BMP280;9930;49.240;8.548;2022-11-20T04:59:23;99976.25;;;10.35
19568;BMP280;9930;49.240;8.548;2022-11-20T05:01:53;99982.31;;;10.39
19568;BMP280;9930;49.240;8.548;2022-11-20T05:04:20;99983.28;;;10.44
19568;BMP280;9930;49.240;8.548;2022-11-20T05:06:53;99977.38;;;10.45
19568;BMP280;9930;49.240;8.548;2022-11-20T05:09:19;99978.09;;;10.41
19568;BMP280;9930;49.240;8.548;2022-11-20T05:11:54;99993.53;;;10.46
19568;BMP280;9930;49.240;8.548;2022-11-20T05:14:24;99991.75;;;10.43
19568;BMP280;9930;49.240;8.548;2022-11-20T05:16:53;99979.63;;;10.34
19568;BMP280;9930;49.240;8.548;2022-11-20T05:19:27;99981.19;;;10.31
19568;BMP280;9930;49.240;8.548;2022-11-20T05:21:54;99996.59;;;10.34
19568;BMP280;9930;49.240;8.548;2022-11-20T05:24:23;99972.53;;;10.26
19568;BMP280;9930;49.240;8.548;2022-11-20T05:26:57;99987.22;;;10.33
19568;BMP280;9930;49.240;8.548;2022-11-20T05:29:25;99988.91;;;10.32
19568;BMP280;9930;49.240;8.548;2022-11-20T05:31:53;99978.56;;;10.28
19568;BMP280;9930;49.240;8.548;2022-11-20T05:34:23;99963.13;;;10.23
19568;BMP280;9930;49.240;8.548;2022-11-20T05:36:52;99986.44;;;10.35
19568;BMP280;9930;49.240;8.548;2022-11-20T05:39:26;99977.94;;;10.35
19568;BMP280;9930;49.240;8.548;2022-11-20T05:41:56;99980.63;;;10.40
19568;BMP280;9930;49.240;8.548;2022-11-20T05:44:42;99965.09;;;10.32
19568;BMP280;9930;49.240;8.548;2022-11-20T05:47:08;99965.25;;;10.36
19568;BMP280;9930;49.240;8.548;2022-11-20T05:49:34;99964.31;;;10.34
19568;BMP280;9930;49.240;8.548;2022-11-20T05:51:59;99975.53;;;10.41
19568;BMP280;9930;49.240;8.548;2022-11-20T05:54:26;99972.22;;;10.44
19568;BMP280;9930;49.240;8.548;2022-11-20T05:56:56;99972.25;;;10.45
19568;BMP280;9930;49.240;8.548;2022-11-20T05:59:26;99976.53;;;10.46
19568;BMP280;9930;49.240;8.548;2022-11-20T06:01:56;99975.81;;;10.50
19568;BMP280;9930;49.240;8.548;2022-11-20T06:04:26;99977.56;;;10.51
19568;BMP280;9930;49.240;8.548;2022-11-20T06:06:56;99980.16;;;10.53
19568;BMP280;9930;49.240;8.548;2022-11-20T06:09:27;99980.09;;;10.51
19568;BMP280;9930;49.240;8.548;2022-11-20T06:11:56;99966.44;;;10.49
19568;BMP280;9930;49.240;8.548;2022-11-20T06:14:27;99968.19;;;10.50
19568;BMP280;9930;49.240;8.548;2022-11-20T06:16:56;99976.00;;;10.56
19568;BMP280;9930;49.240;8.548;2022-11-20T06:19:26;99979.47;;;10.58
19568;BMP280;9930;49.240;8.548;2022-11-20T06:21:54;99983.75;;;10.59
19568;BMP280;9930;49.240;8.548;2022-11-20T06:24:23;99985.53;;;10.62
19568;BMP280;9930;49.240;8.548;2022-11-20T06:26:57;99971.81;;;10.58
19568;BMP280;9930;49.240;8.548;2022-11-20T06:29:26;99977.06;;;10.63
19568;BMP280;9930;49.240;8.548;2022-11-20T06:31:54;99984.81;;;10.66
19568;BMP280;9930;49.240;8.548;2022-11-20T06:34:26;99971.88;;;10.60
19568;BMP280;9930;49.240;8.548;2022-11-20T06:36:53;99972.09;;;10.67
19568;BMP280;9930;49.240;8.548;2022-11-20T06:39:23;99971.19;;;10.65
19568;BMP280;9930;49.240;8.548;2022-11-20T06:41:51;99965.19;;;10.63
19568;BMP280;9930;49.240;8.548;2022-11-20T06:44:22;99979.78;;;10.69
19568;BMP280;9930;49.240;8.548;2022-11-20T06:46:49;99980.66;;;10.69
19568;BMP280;9930;49.240;8.548;2022-11-20T06:49:18;99965.13;;;10.62
19568;BMP280;9930;49.240;8.548;2022-11-20T06:51:44;99983.22;;;10.69
19568;BMP280;9930;49.240;8.548;2022-11-20T06:54:10;99982.41;;;10.70
19568;BMP280;9930;49.240;8.548;2022-11-20T06:56:40;99978.88;;;10.67
19568;BMP280;9930;49.240;8.548;2022-11-20T06:59:11;99980.75;;;10.73
19568;BMP280;9930;49.240;8.548;2022-11-20T07:01:41;99976.44;;;10.70
19568;BMP280;9930;49.240;8.548;2022-11-20T07:04:07;99987.78;;;10.80
19568;BMP280;9930;49.240;8.548;2022-11-20T07:06:32;99987.84;;;10.83
19568;BMP280;9930;49.240;8.548;2022-11-20T07:08:58;99981.13;;;10.85
19568;BMP280;9930;49.240;8.548;2022-11-20T07:11:24;99984.59;;;10.87
19568;BMP280;9930;49.240;8.548;2022-11-20T07:13:53;99987.28;;;10.91
19568;BMP280;9930;49.240;8.548;2022-11-20T07:16:25;99989.03;;;10.94
19568;BMP280;9930;49.240;8.548;2022-11-20T07:18:56;99982.13;;;10.90
19568;BMP280;9930;49.240;8.548;2022-11-20T07:21:26;99982.22;;;10.93
19568;BMP280;9930;49.240;8.548;2022-11-20T07:24:00;99989.09;;;10.95
19568;BMP280;9930;49.240;8.548;2022-11-20T07:26:26;100003.81;;;11.04
19568;BMP280;9930;49.240;8.548;2022-11-20T07:28:56;99981.56;;;11.00
19568;BMP280;9930;49.240;8.548;2022-11-20T07:31:24;99990.25;;;11.07
19568;BMP280;9930;49.240;8.548;2022-11-20T07:33:56;99992.09;;;11.11
19568;BMP280;9930;49.240;8.548;2022-11-20T07:36:26;99997.28;;;11.14
19568;BMP280;9930;49.240;8.548;2022-11-20T07:38:59;99984.38;;;11.09
19568;BMP280;9930;49.240;8.548;2022-11-20T07:41:25;99987.88;;;11.13
19568;BMP280;9930;49.240;8.548;2022-11-20T07:43:53;99998.22;;;11.17
19568;BMP280;9930;49.240;8.548;2022-11-20T07:46:24;100002.56;;;11.20
19568;BMP280;9930;49.240;8.548;2022-11-20T07:48:53;100001.66;;;11.18
19568;BMP280;9930;49.240;8.548;2022-11-20T07:51:21;99989.69;;;11.17
19568;BMP280;9930;49.240;8.548;2022-11-20T07:53:54;100000.13;;;11.24
19568;BMP280;9930;49.240;8.548;2022-11-20T07:56:23;100002.78;;;11.27
19568;BMP280;9930;49.240;8.548;2022-11-20T07:58:53;100002.78;;;11.27
19568;BMP280;9930;49.240;8.548;2022-11-20T08:01:25;99992.56;;;11.27
19568;BMP280;9930;49.240;8.548;2022-11-20T08:03:54;99998.50;;;11.26
19568;BMP280;9930;49.240;8.548;2022-11-20T08:06:24;100010.63;;;11.35
19568;BMP280;9930;49.240;8.548;2022-11-20T08:09:01;100001.34;;;11.37
19568;BMP280;9930;49.240;8.548;2022-11-20T08:11:32;99995.38;;;11.36
19568;BMP280;9930;49.240;8.548;2022-11-20T08:14:16;100003.03;;;11.36
19568;BMP280;9930;49.240;8.548;2022-11-20T08:16:49;99992.69;;;11.32
19568;BMP280;9930;49.240;8.548;2022-11-20T08:19:18;99992.69;;;11.32
19568;BMP280;9930;49.240;8.548;2022-11-20T08:21:45;100012.50;;;11.41
19568;BMP280;9930;49.240;8.548;2022-11-20T08:24:13;100014.97;;;11.38
19568;BMP280;9930;49.240;8.548;2022-11-20T08:26:39;100010.78;;;11.40
19568;BMP280;9930;49.240;8.548;2022-11-20T08:29:08;100023.72;;;11.46
19568;BMP280;9930;49.240;8.548;2022-11-20T08:31:34;100022.06;;;11.48
19568;BMP280;9930;49.240;8.548;2022-11-20T08:34:05;100019.41;;;11.45
19568;BMP280;9930;49.240;8.548;2022-11-20T08:36:33;100026.47;;;11.53
19568;BMP280;9930;49.240;8.548;2022-11-20T08:39:00;100017.88;;;11.50
19568;BMP280;9930;49.240;8.548;2022-11-20T08:41:26;100020.50;;;11.53
19568;BMP280;9930;49.240;8.548;2022-11-20T08:43:58;100035.25;;;11.63
19568;BMP280;9930;49.240;8.548;2022-11-20T08:46:27;100035.41;;;11.69
19568;BMP280;9930;49.240;8.548;2022-11-20T08:48:55;100034.59;;;11.70
19568;BMP280;9930;49.240;8.548;2022-11-20T08:51:23;100031.22;;;11.71
19568;BMP280;9930;49.240;8.548;2022-11-20T08:53:53;100040.88;;;11.81
19568;BMP280;9930;49.240;8.548;2022-11-20T08:56:21;100042.63;;;11.82
19568;BMP280;9930;49.240;8.548;2022-11-20T08:58:53;100039.31;;;11.86
19568;BMP280;9930;49.240;8.548;2022-11-20T09:01:23;100024.81;;;11.85
19568;BMP280;9930;49.240;8.548;2022-11-20T09:03:55;100041.13;;;11.90
19568;BMP280;9930;49.240;8.548;2022-11-20T09:06:24;100045.56;;;11.97
19568;BMP280;9930;49.240;8.548;2022-11-20T09:08:54;100042.19;;;11.98
19568;BMP280;9930;49.240;8.548;2022-11-20T09:11:23;100050.84;;;12.04
19568;BMP280;9930;49.240;8.548;2022-11-20T09:13:56;100048.25;;;12.02
19568;BMP280;9930;49.240;8.548;2022-11-20T09:16:24;100052.69;;;12.09
19568;BMP280;9930;49.240;8.548;2022-11-20T09:18:54;100047.69;;;12.14
19568;BMP280;9930;49.240;8.548;2022-11-20T09:21:24;100044.28;;;12.13
19568;BMP280;9930;49.240;8.548;2022-11-20T09:23:56;100044.47;;;12.21
19568;BMP280;9930;49.240;8.548;2022-11-20T09:26:26;100035.00;;;12.17
19568;BMP280;9930;49.240;8.548;2022-11-20T09:28:56;100052.38;;;12.30
19568;BMP280;9930;49.240;8.548;2022-11-20T09:31:25;100043.75;;;12.26
19568;BMP280;9930;49.240;8.548;2022-11-20T09:33:53;100049.06;;;12.34
19568;BMP280;9930;49.240;8.548;2022-11-20T09:36:24;100051.75;;;12.40
19568;BMP280;9930;49.240;8.548;2022-11-20T09:38:57;100052.66;;;12.42
19568;BMP280;9930;49.240;8.548;2022-11-20T09:47:06;100049.41;;;12.48
19568;BMP280;9930;49.240;8.548;2022-11-20T09:55:24;100070.03;;;12.55
19568;BMP280;9930;49.240;8.548;2022-11-20T09:57:53;100076.94;;;12.58
19568;BMP280;9930;49.240;8.548;2022-11-20T10:00:30;100079.47;;;12.58
19568;BMP280;9930;49.240;8.548;2022-11-20T10:03:32;100070.13;;;12.58
19568;BMP280;9930;49.240;8.548;2022-11-20T10:06:09;100065.88;;;12.59
19568;BMP280;9930;49.240;8.548;2022-11-20T10:08:47;100069.25;;;12.58
19568;BMP280;9930;49.240;8.548;2022-11-20T10:25:13;100060.88;;;12.65
19568;BMP280;9930;49.240;8.548;2022-11-20T10:30:42;100055.69;;;12.62
19568;BMP280;9930;49.240;8.548;2022-11-20T10:33:21;100058.25;;;12.62
19568;BMP280;9930;49.240;8.548;2022-11-20T10:38:47;100047.13;;;12.60
19568;BMP280;9930;49.240;8.548;2022-11-20T10:41:46;100055.81;;;12.67
19568;BMP280;9930;49.240;8.548;2022-11-20T10:44:17;100052.34;;;12.64
19568;BMP280;9930;49.240;8.548;2022-11-20T10:47:03;100053.09;;;12.60
19568;BMP280;9930;49.240;8.548;2022-11-20T10:49:36;100042.88;;;12.60
19568;BMP280;9930;49.240;8.548;2022-11-20T10:52:09;100060.16;;;12.71
19568;BMP280;9930;49.240;8.548;2022-11-20T10:55:21;100053.41;;;12.73
19568;BMP280;9930;49.240;8.548;2022-11-20T11:00:38;100029.56;;;12.75
19568;BMP280;9930;49.240;8.548;2022-11-20T11:03:30;100037.47;;;12.86
19568;BMP280;9930;49.240;8.548;2022-11-20T11:09:02;100035.31;;;13.04
19568;BMP280;9930;49.240;8.548;2022-11-20T11:11:37;100020.88;;;13.06
19568;BMP280;9930;49.240;8.548;2022-11-20T11:14:13;100016.75;;;13.13
19568;BMP280;9930;49.240;8.548;2022-11-20T11:17:02;100014.41;;;13.22
19568;BMP280;9930;49.240;8.548;2022-11-20T11:19:28;100019.81;;;13.36
19568;BMP280;9930;49.240;8.548;2022-11-20T11:22:11;100008.03;;;13.45
19568;BMP280;9930;49.240;8.548;2022-11-20T11:24:56;99998.81;;;13.55
19568;BMP280;9930;49.240;8.548;2022-11-20T11:27:26;99985.28;;;13.60
19568;BMP280;9930;49.240;8.548;2022-11-20T11:30:15;99981.19;;;13.72
19568;BMP280;9930;49.240;8.548;2022-11-20T11:32:42;99992.53;;;13.84
19568;BMP280;9930;49.240;8.548;2022-11-20T11:35:27;99988.47;;;13.96
19568;BMP280;9930;49.240;8.548;2022-11-20T11:38:12;99988.50;;;13.99
19568;BMP280;9930;49.240;8.548;2022-11-20T11:40:40;99997.06;;;13.99
19568;BMP280;9930;49.240;8.548;2022-11-20T11:43:18;99985.97;;;14.00
19568;BMP280;9930;49.240;8.548;2022-11-20T11:46:33;99978.28;;;14.00
19568;BMP280;9930;49.240;8.548;2022-11-20T11:51:47;99980.28;;;14.18
19568;BMP280;9930;49.240;8.548;2022-11-20T11:56:55;99967.53;;;14.22
19568;BMP280;9930;49.240;8.548;2022-11-20T12:02:15;99970.09;;;14.22
19568;BMP280;9930;49.240;8.548;2022-11-20T12:04:54;99963.34;;;14.27
19568;BMP280;9930;49.240;8.548;2022-11-20T12:13:15;99966.94;;;14.39
19568;BMP280;9930;49.240;8.548;2022-11-20T12:15:47;99955.81;;;14.40
19568;BMP280;9930;49.240;8.548;2022-11-20T12:18:28;99950.84;;;14.47
19568;BMP280;9930;49.240;8.548;2022-11-20T12:23:51;99957.84;;;14.57
19568;BMP280;9930;49.240;8.548;2022-11-20T12:26:39;99961.22;;;14.55
19568;BMP280;9930;49.240;8.548;2022-11-20T12:38:23;99946.69;;;14.57
19568;BMP280;9930;49.240;8.548;2022-11-20T13:02:25;99942.03;;;14.32
19568;BMP280;9930;49.240;8.548;2022-11-20T13:05:17;99948.03;;;14.32
19568;BMP280;9930;49.240;8.548;2022-11-20T13:07:46;99931.69;;;14.27
19568;BMP280;9930;49.240;8.548;2022-11-20T13:10:50;99935.28;;;14.38
19568;BMP280;9930;49.240;8.548;2022-11-20T13:13:53;99923.44;;;14.45
19568;BMP280;9930;49.240;8.548;2022-11-20T13:16:44;99927.78;;;14.50
19568;BMP280;9930;49.240;8.548;2022-11-20T13:19:17;99913.22;;;14.49
19568;BMP280;9930;49.240;8.548;2022-11-20T13:21:46;99920.13;;;14.53
19568;BMP280;9930;49.240;8.548;2022-11-20T13:24:32;99915.91;;;14.57
19568;BMP280;9930;49.240;8.548;2022-11-20T13:29:44;99923.63;;;14.58
19568;BMP280;9930;49.240;8.548;2022-11-20T13:32:19;99918.44;;;14.54
19568;BMP280;9930;49.240;8.548;2022-11-20T13:37:32;99915.88;;;14.55
19568;BMP280;9930;49.240;8.548;2022-11-20T13:42:39;99901.19;;;14.44
19568;BMP280;9930;49.240;8.548;2022-11-20T13:45:26;99908.94;;;14.47
19568;BMP280;9930;49.240;8.548;2022-11-20T13:48:00;99903.75;;;14.44
19568;BMP280;9930;49.240;8.548;2022-11-20T13:56:18;99903.50;;;14.29
19568;BMP280;9930;49.240;8.548;2022-11-20T14:01:29;99903.31;;;14.15
19568;BMP280;9930;49.240;8.548;2022-11-20T14:03:58;99890.34;;;14.06
19568;BMP280;9930;49.240;8.548;2022-11-20T14:06:32;99890.28;;;14.03
19568;BMP280;9930;49.240;8.548;2022-11-20T14:08:59;99888.47;;;13.96
19568;BMP280;9930;49.240;8.548;2022-11-20T14:11:30;99893.63;;;13.97
19568;BMP280;9930;49.240;8.548;2022-11-20T14:14:16;99890.94;;;13.89
19568;BMP280;9930;49.240;8.548;2022-11-20T14:16:45;99876.22;;;13.78
19568;BMP280;9930;49.240;8.548;2022-11-20T14:19:25;99889.09;;;13.81
19568;BMP280;9930;49.240;8.548;2022-11-20T14:22:21;99884.72;;;13.74
19568;BMP280;9930;49.240;8.548;2022-11-20T14:25:06;99884.59;;;13.68
19568;BMP280;9930;49.240;8.548;2022-11-20T14:27:56;99881.94;;;13.61
19568;BMP280;9930;49.240;8.548;2022-11-20T14:30:42;99887.00;;;13.57
19568;BMP280;9930;49.240;8.548;2022-11-20T14:33:12;99884.28;;;13.48
19568;BMP280;9930;49.240;8.548;2022-11-20T14:35:49;99876.47;;;13.42
19568;BMP280;9930;49.240;8.548;2022-11-20T14:38:31;99869.50;;;13.33
19568;BMP280;9930;49.240;8.548;2022-11-20T14:41:26;99880.59;;;13.34
19568;BMP280;9930;49.240;8.548;2022-11-20T14:43:59;99871.88;;;13.24
19568;BMP280;9930;49.240;8.548;2022-11-20T14:46:27;99876.22;;;13.26
19568;BMP280;9930;49.240;8.548;2022-11-20T14:49:01;99871.84;;;13.21
19568;BMP280;9930;49.240;8.548;2022-11-20T14:51:35;99882.88;;;13.18
19568;BMP280;9930;49.240;8.548;2022-11-20T14:54:22;99857.06;;;13.09
19568;BMP280;9930;49.240;8.548;2022-11-20T14:56:56;99866.50;;;13.12
19568;BMP280;9930;49.240;8.548;2022-11-20T14:59:30;99864.69;;;13.06
19568;BMP280;9930;49.240;8.548;2022-11-20T15:02:08;99864.59;;;13.00
19568;BMP280;9930;49.240;8.548;2022-11-20T15:05:00;99857.66;;;12.94
19568;BMP280;9930;49.240;8.548;2022-11-20T15:10:26;99861.88;;;12.92
19568;BMP280;9930;49.240;8.548;2022-11-20T15:13:11;99861.91;;;12.94
19568;BMP280;9930;49.240;8.548;2022-11-20T15:15:48;99848.94;;;12.85
19568;BMP280;9930;49.240;8.548;2022-11-20T15:18:19;99857.53;;;12.88
19568;BMP280;9930;49.240;8.548;2022-11-20T15:20:55;99840.34;;;12.81
19568;BMP280;9930;49.240;8.548;2022-11-20T15:23:25;99845.47;;;12.83
19568;BMP280;9930;49.240;8.548;2022-11-20T15:25:54;99835.06;;;12.74
19568;BMP280;9930;49.240;8.548;2022-11-20T15:28:30;99853.19;;;12.84
19568;BMP280;9930;49.240;8.548;2022-11-20T15:30:57;99839.34;;;12.75
19568;BMP280;9930;49.240;8.548;2022-11-20T15:33:27;99836.03;;;12.79
19568;BMP280;9930;49.240;8.548;2022-11-20T15:35:54;99837.75;;;12.80
19568;BMP280;9930;49.240;8.548;2022-11-20T15:38:24;99836.88;;;12.79
19568;BMP280;9930;49.240;8.548;2022-11-20T15:40:55;99841.16;;;12.79
19568;BMP280;9930;49.240;8.548;2022-11-20T15:43:24;99846.22;;;12.77
19568;BMP280;9930;49.240;8.548;2022-11-20T15:45:59;99829.91;;;12.71
19568;BMP280;9930;49.240;8.548;2022-11-20T15:48:54;99820.38;;;12.63
19568;BMP280;9930;49.240;8.548;2022-11-20T15:51:37;99820.44;;;12.67
19568;BMP280;9930;49.240;8.548;2022-11-20T15:54:15;99820.47;;;12.68
19568;BMP280;9930;49.240;8.548;2022-11-20T15:56:49;99820.44;;;12.67
19568;BMP280;9930;49.240;8.548;2022-11-20T15:59:24;99815.31;;;12.67
19568;BMP280;9930;49.240;8.548;2022-11-20T16:01:52;99826.47;;;12.70
19568;BMP280;9930;49.240;8.548;2022-11-20T16:04:27;99818.78;;;12.69
19568;BMP280;9930;49.240;8.548;2022-11-20T16:06:55;99818.78;;;12.69
19568;BMP280;9930;49.240;8.548;2022-11-20T16:09:24;99820.47;;;12.68
19568;BMP280;9930;49.240;8.548;2022-11-20T16:11:53;99816.19;;;12.67
19568;BMP280;9930;49.240;8.548;2022-11-20T16:14:25;99811.88;;;12.64
19568;BMP280;9930;49.240;8.548;2022-11-20T16:17:10;99817.81;;;12.63
19568;BMP280;9930;49.240;8.548;2022-11-20T16:19:38;99811.00;;;12.64
19568;BMP280;9930;49.240;8.548;2022-11-20T16:22:04;99805.03;;;12.63
19568;BMP280;9930;49.240;8.548;2022-11-20T16:24:30;99792.09;;;12.56
19568;BMP280;9930;49.240;8.548;2022-11-20T16:26:56;99796.34;;;12.55
19568;BMP280;9930;49.240;8.548;2022-11-20T16:29:24;99801.50;;;12.58
19568;BMP280;9930;49.240;8.548;2022-11-20T16:31:54;99804.19;;;12.64
19568;BMP280;9930;49.240;8.548;2022-11-20T16:34:21;99804.16;;;12.63